createdAt,value
2018-12-30T00:00:06.601Z,8.80
2018-12-30T00:02:36.052Z,8.80
2018-12-30T00:05:05.772Z,8.80
2018-12-30T00:07:35.713Z,8.70
2018-12-30T00:10:05.639Z,8.80
2018-12-30T00:12:35.089Z,8.80
2018-12-30T00:15:04.624Z,8.80
2018-12-30T00:17:34.055Z,8.80
2018-12-30T00:20:03.911Z,8.80
2018-12-30T00:22:33.365Z,8.80
2018-12-30T00:25:02.777Z,8.80
2018-12-30T00:27:32.182Z,8.80
2018-12-30T00:30:01.644Z,8.80
2018-12-30T00:32:31.075Z,8.80
2018-12-30T00:35:00.574Z,8.80
2018-12-30T00:37:30.002Z,8.80
2018-12-30T00:39:59.433Z,8.80
2018-12-30T00:42:28.835Z,8.70
2018-12-30T00:44:58.504Z,8.70
2018-12-30T00:47:27.920Z,8.80
2018-12-30T00:49:57.325Z,8.70
2018-12-30T00:52:26.704Z,8.70
2018-12-30T00:54:56.139Z,8.70
2018-12-30T00:57:25.850Z,8.70
2018-12-30T00:59:55.363Z,8.70
2018-12-30T01:02:24.765Z,8.70
2018-12-30T01:04:54.236Z,8.70
2018-12-30T01:07:23.643Z,8.70
2018-12-30T01:09:53.039Z,8.60
2018-12-30T01:12:22.402Z,8.60
2018-12-30T01:14:51.765Z,8.50
2018-12-30T01:17:21.206Z,8.50
2018-12-30T01:19:50.642Z,8.50
2018-12-30T01:22:20.115Z,8.40
2018-12-30T01:24:49.539Z,8.40
2018-12-30T01:27:18.931Z,8.40
2018-12-30T01:29:48.265Z,8.40
2018-12-30T01:32:17.757Z,8.40
2018-12-30T01:34:47.091Z,8.40
2018-12-30T01:37:16.840Z,8.50
2018-12-30T01:39:46.245Z,8.50
2018-12-30T01:42:15.698Z,8.50
2018-12-30T01:44:45.102Z,8.50
2018-12-30T01:47:14.544Z,8.60
2018-12-30T01:49:44.230Z,8.50
2018-12-30T01:52:13.604Z,8.60
2018-12-30T01:54:43.005Z,8.50
2018-12-30T01:57:12.383Z,8.60
2018-12-30T01:59:41.728Z,8.50
2018-12-30T02:02:11.327Z,8.50
2018-12-30T02:04:40.730Z,8.50
2018-12-30T02:07:10.204Z,8.50
2018-12-30T02:09:39.511Z,8.50
2018-12-30T02:12:08.965Z,8.60
2018-12-30T02:14:38.575Z,8.60
2018-12-30T02:17:07.916Z,8.60
2018-12-30T02:19:37.244Z,8.60
2018-12-30T02:22:06.628Z,8.60
2018-12-30T02:24:36.025Z,8.50
2018-12-30T02:27:05.629Z,8.60
2018-12-30T02:29:35.046Z,8.50
2018-12-30T02:32:04.418Z,8.50
2018-12-30T02:34:33.840Z,8.40
2018-12-30T02:37:03.275Z,8.50
2018-12-30T02:39:32.729Z,8.40
2018-12-30T02:42:02.047Z,8.50
2018-12-30T02:44:31.395Z,8.50
2018-12-30T02:47:00.770Z,8.50
2018-12-30T02:49:30.130Z,8.50
2018-12-30T02:51:59.510Z,8.40
2018-12-30T02:54:28.952Z,8.40
2018-12-30T02:56:58.285Z,8.40
2018-12-30T02:59:27.851Z,8.40
2018-12-30T03:01:57.580Z,8.40
2018-12-30T03:04:26.916Z,8.40
2018-12-30T03:06:56.333Z,8.40
2018-12-30T03:09:25.735Z,8.40
2018-12-30T03:11:55.164Z,8.40
2018-12-30T03:14:24.520Z,8.40
2018-12-30T03:16:53.961Z,8.50
2018-12-30T03:19:23.327Z,8.40
2018-12-30T03:21:59.163Z,8.50
2018-12-30T03:24:23.835Z,8.40
2018-12-30T03:26:53.195Z,8.50
2018-12-30T03:29:22.676Z,8.40
2018-12-30T03:31:52.085Z,8.40
2018-12-30T03:34:21.431Z,8.50
2018-12-30T03:36:50.847Z,8.50
2018-12-30T03:39:20.184Z,8.50
2018-12-30T03:41:49.535Z,8.50
2018-12-30T03:44:18.849Z,8.50
2018-12-30T03:46:48.184Z,8.50
2018-12-30T03:49:17.486Z,8.50
2018-12-30T03:51:46.838Z,8.50
2018-12-30T03:54:16.163Z,8.40
2018-12-30T03:56:45.516Z,8.50
2018-12-30T03:59:14.915Z,8.50
2018-12-30T04:01:44.257Z,8.50
2018-12-30T04:04:13.634Z,8.50
2018-12-30T04:06:43.047Z,8.50
2018-12-30T04:09:12.432Z,8.50
2018-12-30T04:11:41.743Z,8.40
2018-12-30T04:14:11.142Z,8.50
2018-12-30T04:16:40.499Z,8.50
2018-12-30T04:19:09.841Z,8.50
2018-12-30T04:21:39.136Z,8.40
2018-12-30T04:24:08.489Z,8.40
2018-12-30T04:26:37.838Z,8.50
2018-12-30T04:29:07.155Z,8.50
2018-12-30T04:31:36.535Z,8.40
2018-12-30T04:34:05.919Z,8.50
2018-12-30T04:36:35.330Z,8.50
2018-12-30T04:39:06.332Z,8.50
2018-12-30T04:41:35.838Z,8.50
2018-12-30T04:44:05.187Z,8.50
2018-12-30T04:46:34.543Z,8.50
2018-12-30T04:49:03.913Z,8.50
2018-12-30T04:51:33.323Z,8.40
2018-12-30T04:54:02.694Z,8.50
2018-12-30T04:56:32.045Z,8.50
2018-12-30T04:59:01.383Z,8.50
2018-12-30T05:01:30.784Z,8.50
2018-12-30T05:04:00.132Z,8.60
2018-12-30T05:06:29.523Z,8.50
2018-12-30T05:08:58.844Z,8.50
2018-12-30T05:11:28.247Z,8.50
2018-12-30T05:13:57.547Z,8.50
2018-12-30T05:19:02.389Z,8.50
2018-12-30T05:21:31.718Z,8.50
2018-12-30T05:24:01.037Z,8.50
2018-12-30T05:26:30.362Z,8.50
2018-12-30T05:28:59.756Z,8.50
2018-12-30T05:31:29.074Z,8.40
2018-12-30T05:33:58.405Z,8.50
2018-12-30T05:36:27.703Z,8.40
2018-12-30T05:38:57.044Z,8.40
2018-12-30T05:41:26.420Z,8.30
2018-12-30T05:43:55.738Z,8.30
2018-12-30T05:46:25.019Z,8.30
2018-12-30T05:48:54.340Z,8.30
2018-12-30T05:51:23.632Z,8.30
2018-12-30T05:53:53.083Z,8.30
2018-12-30T05:56:22.354Z,8.40
2018-12-30T05:58:51.671Z,8.40
2018-12-30T06:01:20.964Z,8.40
2018-12-30T06:03:50.280Z,8.50
2018-12-30T06:06:19.598Z,8.40
2018-12-30T06:08:48.953Z,8.30
2018-12-30T06:11:18.254Z,8.40
2018-12-30T06:13:47.543Z,8.40
2018-12-30T06:16:16.870Z,8.40
2018-12-30T06:18:46.208Z,8.30
2018-12-30T06:21:15.582Z,8.40
2018-12-30T06:23:44.911Z,8.40
2018-12-30T06:26:14.252Z,8.40
2018-12-30T06:28:43.523Z,8.40
2018-12-30T06:31:12.896Z,8.30
2018-12-30T06:33:42.202Z,8.40
2018-12-30T06:36:11.569Z,8.40
2018-12-30T06:38:40.904Z,8.50
2018-12-30T06:41:10.325Z,8.40
2018-12-30T06:43:39.647Z,8.40
2018-12-30T06:46:08.993Z,8.50
2018-12-30T06:48:38.289Z,8.40
2018-12-30T06:51:07.645Z,8.40
2018-12-30T06:53:36.959Z,8.30
2018-12-30T06:56:06.316Z,8.40
2018-12-30T06:58:35.642Z,8.40
2018-12-30T07:01:04.971Z,8.30
2018-12-30T07:03:34.296Z,8.40
2018-12-30T07:06:03.753Z,8.30
2018-12-30T07:08:33.054Z,8.30
2018-12-30T07:11:02.581Z,8.40
2018-12-30T07:13:31.907Z,8.30
2018-12-30T07:16:01.244Z,8.30
2018-12-30T07:18:30.648Z,8.30
2018-12-30T07:20:59.952Z,8.30
2018-12-30T07:23:29.279Z,8.30
2018-12-30T07:25:58.596Z,8.30
2018-12-30T07:28:27.917Z,8.30
2018-12-30T07:30:57.251Z,8.30
2018-12-30T07:33:26.617Z,8.30
2018-12-30T07:35:56.011Z,8.20
2018-12-30T07:38:25.322Z,8.20
2018-12-30T07:40:54.603Z,8.20
2018-12-30T07:43:23.923Z,8.20
2018-12-30T07:45:53.197Z,8.30
2018-12-30T07:48:22.519Z,8.20
2018-12-30T07:50:51.851Z,8.30
2018-12-30T07:53:21.180Z,8.20
2018-12-30T07:55:50.553Z,8.20
2018-12-30T07:58:19.884Z,8.20
2018-12-30T08:00:49.219Z,8.20
2018-12-30T08:03:18.595Z,8.30
2018-12-30T08:05:47.947Z,8.20
2018-12-30T08:08:17.281Z,8.20
2018-12-30T08:10:46.849Z,8.20
2018-12-30T08:13:16.256Z,8.30
2018-12-30T08:15:45.596Z,8.40
2018-12-30T08:18:14.908Z,8.40
2018-12-30T08:20:44.243Z,8.40
2018-12-30T08:23:21.112Z,8.40
2018-12-30T08:25:44.581Z,8.40
2018-12-30T08:28:13.857Z,8.50
2018-12-30T08:30:43.259Z,8.50
2018-12-30T08:33:12.560Z,8.50
2018-12-30T08:35:41.887Z,8.50
2018-12-30T08:38:11.278Z,8.60
2018-12-30T08:40:40.645Z,8.60
2018-12-30T08:43:09.997Z,8.60
2018-12-30T08:45:39.325Z,8.70
2018-12-30T08:48:08.624Z,8.70
2018-12-30T08:50:37.946Z,8.80
2018-12-30T08:53:07.299Z,8.90
2018-12-30T08:55:36.633Z,9.00
2018-12-30T08:58:05.945Z,9.00
2018-12-30T09:00:35.209Z,9.10
2018-12-30T09:03:04.536Z,9.20
2018-12-30T09:05:33.829Z,9.30
2018-12-30T09:08:03.255Z,9.30
2018-12-30T09:10:32.571Z,9.50
2018-12-30T09:13:01.963Z,9.50
2018-12-30T09:15:31.292Z,9.60
2018-12-30T09:18:00.639Z,9.70
2018-12-30T09:20:29.955Z,9.90
2018-12-30T09:22:59.303Z,10.00
2018-12-30T09:25:29.542Z,10.00
2018-12-30T09:27:58.891Z,10.00
2018-12-30T09:30:28.187Z,10.10
2018-12-30T09:32:57.524Z,10.10
2018-12-30T09:35:26.841Z,10.20
2018-12-30T09:37:56.163Z,10.20
2018-12-30T09:40:25.525Z,10.30
2018-12-30T09:42:54.843Z,10.30
2018-12-30T09:45:24.201Z,10.40
2018-12-30T09:47:53.562Z,10.50
2018-12-30T09:50:23.284Z,10.60
2018-12-30T09:52:52.633Z,10.60
2018-12-30T09:55:21.987Z,10.70
2018-12-30T09:57:51.290Z,10.80
2018-12-30T10:00:20.650Z,10.90
2018-12-30T10:02:50.004Z,10.90
2018-12-30T10:05:19.326Z,10.90
2018-12-30T10:07:48.641Z,10.70
2018-12-30T10:10:17.992Z,10.60
2018-12-30T10:12:47.293Z,10.50
2018-12-30T10:15:16.663Z,10.40
2018-12-30T10:17:46.054Z,10.40
2018-12-30T10:20:15.467Z,10.50
2018-12-30T10:22:44.848Z,10.70
2018-12-30T10:25:14.192Z,10.90
2018-12-30T10:27:43.615Z,10.90
2018-12-30T10:30:12.952Z,10.80
2018-12-30T10:32:42.310Z,10.50
2018-12-30T10:35:11.645Z,10.50
2018-12-30T10:37:40.993Z,10.30
2018-12-30T10:40:10.302Z,10.20
2018-12-30T10:42:39.611Z,10.10
2018-12-30T10:45:09.084Z,10.10
2018-12-30T10:47:38.466Z,10.20
2018-12-30T10:50:07.908Z,10.30
2018-12-30T10:52:37.264Z,10.40
2018-12-30T10:55:06.623Z,10.50
2018-12-30T10:57:35.976Z,10.50
2018-12-30T11:00:06.091Z,10.40
2018-12-30T11:02:35.426Z,10.30
2018-12-30T11:05:04.961Z,10.30
2018-12-30T11:07:34.249Z,10.30
2018-12-30T11:10:03.753Z,10.30
2018-12-30T11:12:33.102Z,10.40
2018-12-30T11:15:02.524Z,10.40
2018-12-30T11:17:31.970Z,10.40
2018-12-30T11:20:04.488Z,10.40
2018-12-30T11:22:33.909Z,10.50
2018-12-30T11:25:03.480Z,10.50
2018-12-30T11:27:32.838Z,10.40
2018-12-30T11:30:03.204Z,10.40
2018-12-30T11:32:33.585Z,10.30
2018-12-30T11:35:03.963Z,10.30
2018-12-30T11:37:34.226Z,10.30
2018-12-30T11:40:04.602Z,10.30
2018-12-30T11:42:34.840Z,10.30
2018-12-30T11:45:05.281Z,10.20
2018-12-30T11:47:35.619Z,10.10
2018-12-30T11:50:06.660Z,10.00
2018-12-30T11:52:36.833Z,10.10
2018-12-30T11:55:07.124Z,10.00
2018-12-30T11:57:37.281Z,10.00
2018-12-30T12:00:09.383Z,10.00
2018-12-30T12:02:38.827Z,10.00
2018-12-30T12:05:08.365Z,10.00
2018-12-30T12:07:37.825Z,9.90
2018-12-30T12:10:07.817Z,10.10
2018-12-30T12:12:37.206Z,10.10
2018-12-30T12:15:06.966Z,10.10
2018-12-30T12:17:36.330Z,10.20
2018-12-30T12:20:06.180Z,10.20
2018-12-30T12:22:35.516Z,10.20
2018-12-30T12:25:05.199Z,10.20
2018-12-30T12:27:34.750Z,10.30
2018-12-30T12:30:05.277Z,10.30
2018-12-30T12:32:34.798Z,10.20
2018-12-30T12:35:04.325Z,10.10
2018-12-30T12:37:33.639Z,10.10
2018-12-30T12:40:02.953Z,10.00
2018-12-30T12:42:32.271Z,10.00
2018-12-30T12:45:01.603Z,10.10
2018-12-30T12:47:31.004Z,10.20
2018-12-30T12:50:00.512Z,10.20
2018-12-30T12:52:29.911Z,10.30
2018-12-30T12:54:59.275Z,10.30
2018-12-30T12:57:28.773Z,10.20
2018-12-30T12:59:58.153Z,10.10
2018-12-30T13:02:27.636Z,10.10
2018-12-30T13:04:57.068Z,10.10
2018-12-30T13:07:26.536Z,10.10
2018-12-30T13:09:55.873Z,10.10
2018-12-30T13:12:25.236Z,10.20
2018-12-30T13:14:54.643Z,10.20
2018-12-30T13:17:24.088Z,10.20
2018-12-30T13:19:53.496Z,10.20
2018-12-30T13:22:22.932Z,10.30
2018-12-30T13:24:52.315Z,10.20
2018-12-30T13:27:21.679Z,10.00
2018-12-30T13:29:51.113Z,10.10
2018-12-30T13:32:20.549Z,10.00
2018-12-30T13:34:49.985Z,10.00
2018-12-30T13:37:19.380Z,10.00
2018-12-30T13:39:48.913Z,9.90
2018-12-30T13:42:18.465Z,9.80
2018-12-30T13:44:47.883Z,9.70
2018-12-30T13:47:17.360Z,9.80
2018-12-30T13:49:46.873Z,9.80
2018-12-30T13:52:16.270Z,9.80
2018-12-30T13:54:47.853Z,9.70
2018-12-30T13:57:16.822Z,9.70
2018-12-30T13:59:46.181Z,9.70
2018-12-30T14:02:15.587Z,9.70
2018-12-30T14:04:45.089Z,9.60
2018-12-30T14:07:14.547Z,9.60
2018-12-30T14:09:44.008Z,9.50
2018-12-30T14:12:13.423Z,9.50
2018-12-30T14:14:42.842Z,9.50
2018-12-30T14:17:12.320Z,9.50
2018-12-30T14:19:41.698Z,9.40
2018-12-30T14:22:11.243Z,9.50
2018-12-30T14:24:40.627Z,9.50
2018-12-30T14:27:10.299Z,9.50
2018-12-30T14:29:39.739Z,9.50
2018-12-30T14:32:09.266Z,9.40
2018-12-30T14:34:38.635Z,9.30
2018-12-30T14:37:08.044Z,9.30
2018-12-30T14:39:37.482Z,9.20
2018-12-30T14:42:07.413Z,9.20
2018-12-30T14:44:36.883Z,9.20
2018-12-30T14:47:06.372Z,9.20
2018-12-30T14:49:36.067Z,9.30
2018-12-30T14:52:05.456Z,9.30
2018-12-30T14:54:34.894Z,9.40
2018-12-30T14:57:04.329Z,9.40
2018-12-30T14:59:33.690Z,9.40
2018-12-30T15:02:03.080Z,9.40
2018-12-30T15:04:32.498Z,9.50
2018-12-30T15:07:01.881Z,9.40
2018-12-30T15:09:35.558Z,9.40
2018-12-30T15:12:02.359Z,9.40
2018-12-30T15:14:31.697Z,9.40
2018-12-30T15:17:01.145Z,9.40
2018-12-30T15:19:30.500Z,9.40
2018-12-30T15:22:00.022Z,9.30
2018-12-30T15:24:29.439Z,9.30
2018-12-30T15:26:58.800Z,9.30
2018-12-30T15:29:28.265Z,9.30
2018-12-30T15:31:57.843Z,9.30
2018-12-30T15:34:27.255Z,9.20
2018-12-30T15:36:56.590Z,9.20
2018-12-30T15:39:26.130Z,9.20
2018-12-30T15:41:55.476Z,9.30
2018-12-30T15:44:25.001Z,9.20
2018-12-30T15:46:54.352Z,9.20
2018-12-30T15:49:24.194Z,9.20
2018-12-30T15:51:53.618Z,9.20
2018-12-30T15:54:23.207Z,9.20
2018-12-30T15:56:52.587Z,9.20
2018-12-30T15:59:22.080Z,9.20
2018-12-30T16:01:51.490Z,9.20
2018-12-30T16:04:20.864Z,9.20
2018-12-30T16:06:50.260Z,9.20
2018-12-30T16:09:19.619Z,9.20
2018-12-30T16:11:49.092Z,9.20
2018-12-30T16:14:18.518Z,9.20
2018-12-30T16:16:47.953Z,9.20
2018-12-30T16:19:17.376Z,9.20
2018-12-30T16:21:46.745Z,9.20
2018-12-30T16:24:16.204Z,9.20
2018-12-30T16:26:45.547Z,9.20
2018-12-30T16:29:14.885Z,9.10
2018-12-30T16:31:44.248Z,9.10
2018-12-30T16:34:13.645Z,9.20
2018-12-30T16:36:43.123Z,9.10
2018-12-30T16:39:12.472Z,9.10
2018-12-30T16:41:41.843Z,9.10
2018-12-30T16:44:11.286Z,9.10
2018-12-30T16:46:40.739Z,9.10
2018-12-30T16:49:10.107Z,9.00
2018-12-30T16:51:39.514Z,9.00
2018-12-30T16:54:08.905Z,9.00
2018-12-30T16:56:38.291Z,9.00
2018-12-30T16:59:07.665Z,9.00
2018-12-30T17:01:37.001Z,9.00
2018-12-30T17:04:06.621Z,8.90
2018-12-30T17:06:36.146Z,8.90
2018-12-30T17:09:07.596Z,8.90
2018-12-30T17:11:37.239Z,8.80
2018-12-30T17:14:06.596Z,8.80
2018-12-30T17:16:35.978Z,8.80
2018-12-30T17:19:05.337Z,8.70
2018-12-30T17:21:34.719Z,8.60
2018-12-30T17:24:04.101Z,8.60
2018-12-30T17:26:33.472Z,8.60
2018-12-30T17:29:02.860Z,8.50
2018-12-30T17:31:32.272Z,8.60
2018-12-30T17:34:01.596Z,8.60
2018-12-30T17:36:35.079Z,8.50
2018-12-30T17:39:06.159Z,8.50
2018-12-30T17:41:35.562Z,8.40
2018-12-30T17:44:04.942Z,8.40
2018-12-30T17:46:35.296Z,8.40
2018-12-30T17:49:04.685Z,8.50
2018-12-30T17:51:34.079Z,8.50
2018-12-30T17:54:03.576Z,8.50
2018-12-30T17:56:35.578Z,8.50
2018-12-30T17:59:04.998Z,8.50
2018-12-30T18:01:34.575Z,8.60
2018-12-30T18:04:03.954Z,8.60
2018-12-30T18:06:34.874Z,8.60
2018-12-30T18:09:05.238Z,8.60
2018-12-30T18:11:34.667Z,8.60
2018-12-30T18:14:04.242Z,8.60
2018-12-30T18:16:34.168Z,8.60
2018-12-30T18:19:03.535Z,8.70
2018-12-30T18:21:33.112Z,8.70
2018-12-30T18:24:02.436Z,8.70
2018-12-30T18:26:37.764Z,8.70
2018-12-30T18:29:02.957Z,8.70
2018-12-30T18:31:32.375Z,8.60
2018-12-30T18:34:01.747Z,8.60
2018-12-30T18:36:31.180Z,8.60
2018-12-30T18:39:00.597Z,8.60
2018-12-30T18:41:29.971Z,8.60
2018-12-30T18:43:59.338Z,8.60
2018-12-30T18:46:28.756Z,8.60
2018-12-30T18:48:58.165Z,8.60
2018-12-30T18:51:27.575Z,8.60
2018-12-30T18:53:58.512Z,8.70
2018-12-30T18:56:27.883Z,8.70
2018-12-30T18:58:57.332Z,8.70
2018-12-30T19:01:26.668Z,8.70
2018-12-30T19:03:56.100Z,8.70
2018-12-30T19:06:25.556Z,8.60
2018-12-30T19:08:54.911Z,8.70
2018-12-30T19:11:24.276Z,8.70
2018-12-30T19:13:53.663Z,8.70
2018-12-30T19:16:23.061Z,8.70
2018-12-30T19:18:52.588Z,8.80
2018-12-30T19:21:22.023Z,8.80
2018-12-30T19:23:51.452Z,8.80
2018-12-30T19:26:20.823Z,8.80
2018-12-30T19:28:50.236Z,8.90
2018-12-30T19:31:19.673Z,8.80
2018-12-30T19:33:49.067Z,8.90
2018-12-30T19:36:18.493Z,8.80
2018-12-30T19:38:47.895Z,8.80
2018-12-30T19:41:17.359Z,8.80
2018-12-30T19:43:46.840Z,8.90
2018-12-30T19:46:16.266Z,8.80
2018-12-30T19:48:45.846Z,8.80
2018-12-30T19:51:15.253Z,8.80
2018-12-30T19:53:44.651Z,8.80
2018-12-30T19:56:14.097Z,8.80
2018-12-30T19:58:43.554Z,8.80
2018-12-30T20:01:12.930Z,8.90
2018-12-30T20:03:42.265Z,8.90
2018-12-30T20:06:11.821Z,8.90
2018-12-30T20:08:41.543Z,8.90
2018-12-30T20:11:12.164Z,8.80
2018-12-30T20:13:41.530Z,8.90
2018-12-30T20:16:10.924Z,8.90
2018-12-30T20:18:40.470Z,8.90
2018-12-30T20:21:10.003Z,9.00
2018-12-30T20:23:39.351Z,9.00
2018-12-30T20:26:08.747Z,8.90
2018-12-30T20:28:38.197Z,9.00
2018-12-30T20:31:07.687Z,9.00
2018-12-30T20:33:37.106Z,9.00
2018-12-30T20:36:06.990Z,9.00
2018-12-30T20:38:39.361Z,9.00
2018-12-30T20:41:11.659Z,9.00
2018-12-30T20:43:40.832Z,9.00
2018-12-30T20:46:10.225Z,9.00
2018-12-30T20:48:39.630Z,9.00
2018-12-30T20:51:09.009Z,9.10
2018-12-30T20:53:38.624Z,9.10
2018-12-30T20:56:07.989Z,9.10
2018-12-30T20:58:37.438Z,9.10
2018-12-30T21:01:06.929Z,9.20
2018-12-30T21:03:54.431Z,9.20
2018-12-30T21:06:28.906Z,9.10
2018-12-30T21:09:08.686Z,9.20
2018-12-30T21:11:40.840Z,9.20
2018-12-30T21:14:10.297Z,9.10
2018-12-30T21:16:42.803Z,9.10
2018-12-30T21:19:12.231Z,9.10
2018-12-30T21:21:41.790Z,9.10
2018-12-30T21:24:11.137Z,9.10
2018-12-30T21:26:45.555Z,9.20
2018-12-30T21:29:14.615Z,9.20
2018-12-30T21:31:44.103Z,9.20
2018-12-30T21:34:14.084Z,9.20
2018-12-30T21:36:46.417Z,9.20
2018-12-30T21:39:15.982Z,9.30
2018-12-30T21:41:48.875Z,9.30
2018-12-30T21:44:18.599Z,9.30
2018-12-30T21:46:51.476Z,9.30
2018-12-30T21:49:20.943Z,9.30
2018-12-30T21:51:50.326Z,9.20
2018-12-30T21:54:27.110Z,9.20
2018-12-30T21:56:57.130Z,9.20
2018-12-30T21:59:27.108Z,9.30
2018-12-30T22:01:59.148Z,9.30
2018-12-30T22:04:28.496Z,9.30
2018-12-30T22:06:58.073Z,9.30
2018-12-30T22:09:27.561Z,9.30
2018-12-30T22:11:57.281Z,9.30
2018-12-30T22:14:27.903Z,9.30
2018-12-30T22:16:57.712Z,9.30
2018-12-30T22:19:34.015Z,9.30
2018-12-30T22:22:05.718Z,9.30
2018-12-30T22:24:36.697Z,9.40
2018-12-30T22:27:06.452Z,9.40
2018-12-30T22:29:36.917Z,9.40
2018-12-30T22:32:07.011Z,9.40
2018-12-30T22:34:36.713Z,9.40
2018-12-30T22:37:06.183Z,9.40
2018-12-30T22:39:35.609Z,9.40
2018-12-30T22:42:05.013Z,9.40
2018-12-30T22:44:34.510Z,9.40
2018-12-30T22:47:07.169Z,9.40
2018-12-30T22:49:58.297Z,9.30
2018-12-30T22:52:20.773Z,9.30
2018-12-30T22:54:50.215Z,9.30
2018-12-30T22:57:19.699Z,9.30
2018-12-30T22:59:49.097Z,9.30
2018-12-30T23:02:18.453Z,9.30
2018-12-30T23:04:47.763Z,9.30
2018-12-30T23:07:17.239Z,9.30
2018-12-30T23:09:46.574Z,9.30
2018-12-30T23:12:15.977Z,9.40
2018-12-30T23:14:45.333Z,9.40
2018-12-30T23:17:20.490Z,9.30
2018-12-30T23:19:49.887Z,9.30
2018-12-30T23:22:19.496Z,9.30
2018-12-30T23:24:48.884Z,9.30
2018-12-30T23:27:18.435Z,9.30
2018-12-30T23:29:47.868Z,9.30
2018-12-30T23:32:17.289Z,9.40
2018-12-30T23:34:46.672Z,9.40
2018-12-30T23:37:16.099Z,9.30
2018-12-30T23:39:45.553Z,9.40
2018-12-30T23:42:15.028Z,9.30
2018-12-30T23:44:44.985Z,9.40
2018-12-30T23:47:14.571Z,9.40
2018-12-30T23:49:43.988Z,9.40
2018-12-30T23:52:13.342Z,9.40
2018-12-30T23:54:42.735Z,9.40
2018-12-30T23:57:12.134Z,9.40
2018-12-30T23:59:41.531Z,9.40
